Northern Highway — 3EVE6 — position and weather

sailwx.info

Track history (hours):
 
Tides and Currents Weather Stations Pressure Air Temp Water Temp Dewpoint Dewpoint Depression Visibility Wind Speed Wind Dir Waves Ship Positions

Northern Highway

Last reported at 2016-Jul-18 16:03 UTC. Time now 2016-Jul-27 03:46 UTC.
Position N 29°41' W 014°38'.
Warning: this ship's position is 8 days out of date.

Length 188 m; draft 7.1 m.

Type: Cargo ship. MMSI: 371608000.

Date/timePositionNaut miles runAvg speedWind from/ knotsBaromVisibWave heightAir tempDewpointWater temp
2016-Jul-18 16:03N 29°41' W 014°38'3915.8
2016-Jul-18 13:34N 30°19' W 014°27'1515.3
2016-Jul-18 12:33N 30°34' W 014°22'1515.3
2016-Jul-18 11:33N 30°48' W 014°18'12515.5
2016-Jul-18 03:27N 32°50' W 013°42'2915.4
2016-Jul-18 01:32N 33°19' W 013°32'2215.4
2016-Jul-18 00:08N 33°39' W 013°26'1015.3
2016-Jul-17 23:30N 33°49' W 013°23'1515.4
2016-Jul-17 22:33N 34°03' W 013°19'1615.5
2016-Jul-17 21:33N 34°18' W 013°14'1615.8
2016-Jul-17 20:33N 34°33' W 013°09'1615.7
2016-Jul-17 19:34N 34°48' W 013°05'1615.7
2016-Jul-17 18:31N 35°04' W 012°60'1515.7
2016-Jul-17 17:33N 35°19' W 012°55'1615.4
2016-Jul-17 16:31N 35°35' W 012°50'1515.6
2016-Jul-17 15:32N 35°49' W 012°45'1616.3
2016-Jul-17 14:32N 36°05' W 012°40'1515.6
2016-Jul-17 13:33N 36°20' W 012°36'1615.6
2016-Jul-17 12:33N 36°35' W 012°31'1515.6
2016-Jul-17 11:33N 36°50' W 012°26'1615.4
2016-Jul-17 10:33N 37°05' W 012°21'1515.3
2016-Jul-17 09:33N 37°20' W 012°17'1615.5
2016-Jul-17 08:33N 37°35' W 012°11'1615.7
2016-Jul-17 07:33N 37°50' W 012°07'1615.8
2016-Jul-17 06:33N 38°05' W 012°02'3215.8
2016-Jul-17 04:33N 38°36' W 011°52'1616.0
2016-Jul-17 03:33N 38°51' W 011°47'1916.1
2016-Jul-17 02:22N 39°10' W 011°40'1315.8
2016-Jul-17 01:32N 39°23' W 011°36'1616.1
2016-Jul-17 00:32N 39°38' W 011°31'1616.1
2016-Jul-16 23:33N 39°54' W 011°26'1716.1
2016-Jul-16 22:30N 40°10' W 011°20'1516.0
2016-Jul-16 21:33N 40°25' W 011°15'1615.9
2016-Jul-16 20:33N 40°40' W 011°10'1615.9
2016-Jul-16 19:33N 40°55' W 011°05'1716.4
2016-Jul-16 18:32N 41°12' W 010°59'14115.7
2016-Jul-16 09:33N 43°27' W 010°10'15614.9
2016-Jul-15 23:03N 45°44' W 008°23'7415.7
2016-Jul-15 18:18N 46°49' W 007°32'10715.4
2016-Jul-15 11:19N 48°24' W 006°15'1414.4
2016-Jul-15 10:21N 48°36' W 006°05'1714.6
2016-Jul-15 09:12N 48°50' W 005°52'914.5
2016-Jul-15 08:33N 48°57' W 005°42'1615.1
2016-Jul-15 07:30N 49°05' W 005°21'1515.4
2016-Jul-15 06:30N 49°12' W 005°00'1615.5
2016-Jul-15 05:28N 49°20' W 004°39'1515.3
2016-Jul-15 04:28N 49°28' W 004°19'1515.0
2016-Jul-15 03:26N 49°35' W 003°57'1314.7
2016-Jul-15 02:33N 49°42' W 003°41'1514.7
2016-Jul-15 01:33N 49°49' W 003°21'1515.0
2016-Jul-15 00:33N 49°57' W 003°01'1615.5
2016-Jul-14 23:32N 50°02' W 002°38'2216.4
2016-Jul-14 22:14N 50°08' W 002°05'1116.9
2016-Jul-14 21:33N 50°11' W 001°48'1716.7
2016-Jul-14 20:33N 50°15' W 001°23'1616.0
2016-Jul-14 19:33N 50°20' W 000°59'1514.6
2016-Jul-14 18:33N 50°24' W 000°37'1413.8
2016-Jul-14 17:34N 50°27' W 000°16'1313.3
2016-Jul-14 16:34N 50°31' E 000°04'1313.3
2016-Jul-14 15:33N 50°35' E 000°24'2914.6
2016-Jul-14 13:33N 50°51' E 001°02'1716.5
2016-Jul-14 12:33N 51°01' E 001°22'1616.3
2016-Jul-14 11:33N 51°11' E 001°43'1515.0
2016-Jul-14 10:33N 51°24' E 001°55'1414.4
2016-Jul-14 09:34N 51°36' E 002°09'1414.2
2016-Jul-14 08:33N 51°46' E 002°24'10815.5
2016-Jul-14 01:33N 53°08' E 004°20'3113.1
2016-Jul-13 23:09N 53°32' E 004°55'914.4
2016-Jul-13 22:33N 53°35' E 005°09'1515.2
2016-Jul-13 21:33N 53°40' E 005°33'1615.5
2016-Jul-13 20:33N 53°44' E 005°58'1010.3
2016-Jul-13 19:33N 53°39' E 006°13'6 5.7
2016-Jul-13 18:33N 53°35' E 006°20'0 0.0
2016-Jul-13 17:33N 53°35' E 006°20'0 0.0
2016-Jul-13 16:32N 53°35' E 006°20'0 0.0
2016-Jul-13 15:33N 53°35' E 006°20'0 0.0
2016-Jul-13 14:33N 53°35' E 006°20'0 0.0
2016-Jul-13 13:32N 53°35' E 006°20'0 0.0
2016-Jul-13 12:33N 53°35' E 006°20'0 0.0
2016-Jul-13 11:33N 53°35' E 006°20'0 0.0
2016-Jul-13 10:30N 53°35' E 006°20'0 0.0
2016-Jul-13 09:33N 53°35' E 006°20'0 0.0
2016-Jul-13 08:33N 53°35' E 006°19'0 0.0
2016-Jul-13 07:26N 53°35' E 006°19'0 0.0
2016-Jul-13 06:29N 53°35' E 006°19'0 0.0
2016-Jul-13 05:32N 53°35' E 006°19'0 0.0
2016-Jul-13 04:24N 53°35' E 006°20'0 0.0
2016-Jul-13 03:32N 53°35' E 006°20'0 0.0
2016-Jul-13 02:33N 53°35' E 006°20'0 0.0
2016-Jul-13 01:30N 53°35' E 006°20'0 0.0
2016-Jul-13 00:33N 53°35' E 006°20'0 0.0
2016-Jul-12 23:33N 53°35' E 006°20'0 0.0
2016-Jul-12 22:33N 53°35' E 006°20'0 0.0
2016-Jul-12 21:33N 53°35' E 006°20'0 0.0
2016-Jul-12 20:27N 53°35' E 006°19'0 0.0
2016-Jul-12 19:33N 53°35' E 006°19'0 0.0
2016-Jul-12 18:33N 53°35' E 006°19'0 0.0
2016-Jul-12 17:33N 53°35' E 006°20'0 0.1
2016-Jul-12 16:30N 53°35' E 006°20'0 0.0
2016-Jul-12 15:30N 53°35' E 006°20'0 0.0
2016-Jul-12 14:33N 53°35' E 006°20'0 0.0
2016-Jul-12 13:26N 53°35' E 006°20'0 0.0
2016-Jul-12 12:32N 53°35' E 006°20'0 0.0
2016-Jul-12 11:32N 53°35' E 006°20'0 0.0
2016-Jul-12 10:29N 53°35' E 006°20'0 0.0
2016-Jul-12 09:30N 53°35' E 006°20'0 0.0
2016-Jul-12 08:33N 53°35' E 006°20'0 0.0
2016-Jul-12 07:32N 53°35' E 006°20'0 0.0
2016-Jul-12 06:32N 53°35' E 006°20'0 0.0
2016-Jul-12 05:33N 53°35' E 006°20'0 0.0
2016-Jul-12 04:33N 53°35' E 006°20'0 0.1
2016-Jul-12 03:33N 53°35' E 006°20'0 0.0
2016-Jul-12 02:29N 53°35' E 006°20'0 0.0
2016-Jul-12 01:30N 53°35' E 006°20'0 0.0
2016-Jul-12 00:33N 53°35' E 006°20'0 0.0
2016-Jul-11 23:32N 53°35' E 006°20'0 0.0
2016-Jul-11 22:32N 53°35' E 006°20'0 0.0
2016-Jul-11 21:32N 53°35' E 006°20'0 0.0
2016-Jul-11 20:33N 53°35' E 006°20'0 0.0
2016-Jul-11 19:33N 53°35' E 006°20'0 0.0
2016-Jul-11 18:32N 53°35' E 006°20'0 0.0
2016-Jul-11 17:29N 53°35' E 006°20'0 0.1
2016-Jul-11 16:33N 53°35' E 006°20'0 0.0
2016-Jul-11 15:30N 53°35' E 006°20'0 0.1
2016-Jul-11 14:33N 53°35' E 006°20'0 0.0
2016-Jul-11 13:32N 53°35' E 006°20'0 0.0
2016-Jul-11 12:32N 53°35' E 006°20'0 0.0
2016-Jul-11 11:32N 53°35' E 006°20'0 0.0
2016-Jul-11 10:33N 53°35' E 006°20'0 0.0
2016-Jul-11 09:33N 53°35' E 006°20'0 0.0
2016-Jul-11 08:33N 53°35' E 006°20'0 0.0
2016-Jul-11 07:30N 53°35' E 006°20'0 0.0
2016-Jul-11 06:32N 53°35' E 006°20'0 0.0
2016-Jul-11 04:33N 53°35' E 006°20'0 0.0
2016-Jul-11 03:32N 53°35' E 006°20'0 0.0
2016-Jul-11 02:32N 53°35' E 006°20'0 0.0
2016-Jul-11 01:33N 53°35' E 006°20'0 0.0
2016-Jul-11 00:33N 53°35' E 006°20'0 0.0
2016-Jul-10 23:29N 53°35' E 006°20'0 0.0
2016-Jul-10 22:30N 53°35' E 006°20'0 0.0
2016-Jul-10 21:29N 53°35' E 006°20'0 0.0
2016-Jul-10 20:33N 53°35' E 006°20'0 0.1
2016-Jul-10 19:33N 53°35' E 006°20'0 0.0
2016-Jul-10 18:33N 53°35' E 006°20'0 0.0
2016-Jul-10 17:29N 53°35' E 006°19'0 0.0
2016-Jul-10 16:32N 53°35' E 006°20'0 0.0
2016-Jul-10 15:32N 53°35' E 006°20'0 0.0
2016-Jul-10 14:33N 53°35' E 006°20'0 0.0
2016-Jul-10 13:33N 53°35' E 006°20'0 0.0
2016-Jul-10 12:33N 53°35' E 006°20'0 0.0
2016-Jul-10 11:33N 53°35' E 006°20'0 0.0
2016-Jul-10 10:33N 53°35' E 006°20'0 0.0
2016-Jul-10 09:29N 53°35' E 006°20'0 0.0
2016-Jul-10 08:33N 53°35' E 006°20'0 0.0
2016-Jul-10 07:33N 53°35' E 006°20'0 0.0
2016-Jul-10 06:32N 53°35' E 006°20'0 0.0
2016-Jul-10 05:33N 53°35' E 006°20'0 0.0
2016-Jul-10 04:33N 53°35' E 006°20'0 0.0
2016-Jul-10 03:33N 53°35' E 006°20'0 0.0
2016-Jul-10 02:33N 53°35' E 006°20'0 0.0
2016-Jul-10 01:33N 53°35' E 006°20'0 0.0
2016-Jul-10 00:33N 53°35' E 006°20'0 0.0
2016-Jul-09 23:33N 53°35' E 006°20'0 0.0
2016-Jul-09 22:33N 53°35' E 006°20'0 0.0
2016-Jul-09 21:33N 53°35' E 006°20'0 0.0
2016-Jul-09 20:33N 53°35' E 006°20'0 0.0
2016-Jul-09 19:32N 53°35' E 006°20'0 0.0
2016-Jul-09 18:32N 53°35' E 006°20'0 0.1
2016-Jul-09 17:32N 53°35' E 006°19'0 0.0
2016-Jul-09 16:30N 53°35' E 006°19'9 9.2
2016-Jul-09 15:34N 53°37' E 006°34'1716.7
2016-Jul-09 14:33N 53°26' E 006°55'10 9.7
2016-Jul-09 13:33N 53°20' E 007°09'1 0.9
2016-Jul-09 12:29N 53°20' E 007°10'0 0.0
2016-Jul-09 11:32N 53°20' E 007°10'0 0.0
2016-Jul-09 10:29N 53°20' E 007°10'0 0.0
2016-Jul-09 09:32N 53°20' E 007°10'0 0.0
2016-Jul-09 08:32N 53°20' E 007°10'0 0.0
2016-Jul-09 07:32N 53°20' E 007°10'0 0.0
2016-Jul-09 06:32N 53°20' E 007°10'0 0.0
2016-Jul-09 04:32N 53°20' E 007°10'0 0.0
2016-Jul-09 03:32N 53°20' E 007°10'0 0.0
2016-Jul-09 02:32N 53°20' E 007°10'0 0.0
2016-Jul-09 01:33N 53°20' E 007°10'6 6.2
2016-Jul-09 00:33N 53°20' E 006°60'1514.9
2016-Jul-08 23:33N 53°32' E 006°44'1515.4
2016-Jul-08 22:34N 53°37' E 006°21'2 2.2
2016-Jul-08 21:32N 53°36' E 006°18'0 0.0
2016-Jul-08 20:32N 53°36' E 006°18'0 0.0
2016-Jul-08 19:29N 53°36' E 006°18'0 0.0
2016-Jul-08 18:32N 53°36' E 006°18'0 0.0
2016-Jul-08 17:32N 53°36' E 006°18'0 0.0
2016-Jul-08 16:32N 53°36' E 006°18'  
Track history (hours):
 
Tides and Currents Weather Stations Pressure Air Temp Water Temp Dewpoint Dewpoint Depression Visibility Wind Speed Wind Dir Waves Ship Positions

Northern Highway

Last reported at 2016-Jul-18 16:03 UTC. Time now 2016-Jul-27 03:46 UTC.
Position N 29°41' W 014°38'.
Warning: this ship's position is 8 days out of date.

Length 188 m; draft 7.1 m.

Type: Cargo ship. MMSI: 371608000.

Date/timePositionNaut miles runAvg speedWind from/ knotsBaromVisibWave heightAir tempDewpointWater temp
2016-Jul-18 16:03N 29°41' W 014°38'3915.8
2016-Jul-18 13:34N 30°19' W 014°27'1515.3
2016-Jul-18 12:33N 30°34' W 014°22'1515.3
2016-Jul-18 11:33N 30°48' W 014°18'12515.5
2016-Jul-18 03:27N 32°50' W 013°42'2915.4
2016-Jul-18 01:32N 33°19' W 013°32'2215.4
2016-Jul-18 00:08N 33°39' W 013°26'1015.3
2016-Jul-17 23:30N 33°49' W 013°23'1515.4
2016-Jul-17 22:33N 34°03' W 013°19'1615.5
2016-Jul-17 21:33N 34°18' W 013°14'1615.8
2016-Jul-17 20:33N 34°33' W 013°09'1615.7
2016-Jul-17 19:34N 34°48' W 013°05'1615.7
2016-Jul-17 18:31N 35°04' W 012°60'1515.7
2016-Jul-17 17:33N 35°19' W 012°55'1615.4
2016-Jul-17 16:31N 35°35' W 012°50'1515.6
2016-Jul-17 15:32N 35°49' W 012°45'1616.3
2016-Jul-17 14:32N 36°05' W 012°40'1515.6
2016-Jul-17 13:33N 36°20' W 012°36'1615.6
2016-Jul-17 12:33N 36°35' W 012°31'1515.6
2016-Jul-17 11:33N 36°50' W 012°26'1615.4
2016-Jul-17 10:33N 37°05' W 012°21'1515.3
2016-Jul-17 09:33N 37°20' W 012°17'1615.5
2016-Jul-17 08:33N 37°35' W 012°11'1615.7
2016-Jul-17 07:33N 37°50' W 012°07'1615.8
2016-Jul-17 06:33N 38°05' W 012°02'3215.8
2016-Jul-17 04:33N 38°36' W 011°52'1616.0
2016-Jul-17 03:33N 38°51' W 011°47'1916.1
2016-Jul-17 02:22N 39°10' W 011°40'1315.8
2016-Jul-17 01:32N 39°23' W 011°36'1616.1
2016-Jul-17 00:32N 39°38' W 011°31'1616.1
2016-Jul-16 23:33N 39°54' W 011°26'1716.1
2016-Jul-16 22:30N 40°10' W 011°20'1516.0
2016-Jul-16 21:33N 40°25' W 011°15'1615.9
2016-Jul-16 20:33N 40°40' W 011°10'1615.9
2016-Jul-16 19:33N 40°55' W 011°05'1716.4
2016-Jul-16 18:32N 41°12' W 010°59'14115.7
2016-Jul-16 09:33N 43°27' W 010°10'15614.9
2016-Jul-15 23:03N 45°44' W 008°23'7415.7
2016-Jul-15 18:18N 46°49' W 007°32'10715.4
2016-Jul-15 11:19N 48°24' W 006°15'1414.4
2016-Jul-15 10:21N 48°36' W 006°05'1714.6
2016-Jul-15 09:12N 48°50' W 005°52'914.5
2016-Jul-15 08:33N 48°57' W 005°42'1615.1
2016-Jul-15 07:30N 49°05' W 005°21'1515.4
2016-Jul-15 06:30N 49°12' W 005°00'1615.5
2016-Jul-15 05:28N 49°20' W 004°39'1515.3
2016-Jul-15 04:28N 49°28' W 004°19'1515.0
2016-Jul-15 03:26N 49°35' W 003°57'1314.7
2016-Jul-15 02:33N 49°42' W 003°41'1514.7
2016-Jul-15 01:33N 49°49' W 003°21'1515.0
2016-Jul-15 00:33N 49°57' W 003°01'1615.5
2016-Jul-14 23:32N 50°02' W 002°38'2216.4
2016-Jul-14 22:14N 50°08' W 002°05'1116.9
2016-Jul-14 21:33N 50°11' W 001°48'1716.7
2016-Jul-14 20:33N 50°15' W 001°23'1616.0
2016-Jul-14 19:33N 50°20' W 000°59'1514.6
2016-Jul-14 18:33N 50°24' W 000°37'1413.8
2016-Jul-14 17:34N 50°27' W 000°16'1313.3
2016-Jul-14 16:34N 50°31' E 000°04'1313.3
2016-Jul-14 15:33N 50°35' E 000°24'2914.6
2016-Jul-14 13:33N 50°51' E 001°02'1716.5
2016-Jul-14 12:33N 51°01' E 001°22'1616.3
2016-Jul-14 11:33N 51°11' E 001°43'1515.0
2016-Jul-14 10:33N 51°24' E 001°55'1414.4
2016-Jul-14 09:34N 51°36' E 002°09'1414.2
2016-Jul-14 08:33N 51°46' E 002°24'10815.5
2016-Jul-14 01:33N 53°08' E 004°20'3113.1
2016-Jul-13 23:09N 53°32' E 004°55'914.4
2016-Jul-13 22:33N 53°35' E 005°09'1515.2
2016-Jul-13 21:33N 53°40' E 005°33'1615.5
2016-Jul-13 20:33N 53°44' E 005°58'1010.3
2016-Jul-13 19:33N 53°39' E 006°13'6 5.7
2016-Jul-13 18:33N 53°35' E 006°20'0 0.0
2016-Jul-13 17:33N 53°35' E 006°20'0 0.0
2016-Jul-13 16:32N 53°35' E 006°20'0 0.0
2016-Jul-13 15:33N 53°35' E 006°20'0 0.0
2016-Jul-13 14:33N 53°35' E 006°20'0 0.0
2016-Jul-13 13:32N 53°35' E 006°20'0 0.0
2016-Jul-13 12:33N 53°35' E 006°20'0 0.0
2016-Jul-13 11:33N 53°35' E 006°20'0 0.0
2016-Jul-13 10:30N 53°35' E 006°20'0 0.0
2016-Jul-13 09:33N 53°35' E 006°20'0 0.0
2016-Jul-13 08:33N 53°35' E 006°19'0 0.0
2016-Jul-13 07:26N 53°35' E 006°19'0 0.0
2016-Jul-13 06:29N 53°35' E 006°19'0 0.0
2016-Jul-13 05:32N 53°35' E 006°19'0 0.0
2016-Jul-13 04:24N 53°35' E 006°20'0 0.0
2016-Jul-13 03:32N 53°35' E 006°20'0 0.0
2016-Jul-13 02:33N 53°35' E 006°20'0 0.0
2016-Jul-13 01:30N 53°35' E 006°20'0 0.0
2016-Jul-13 00:33N 53°35' E 006°20'0 0.0
2016-Jul-12 23:33N 53°35' E 006°20'0 0.0
2016-Jul-12 22:33N 53°35' E 006°20'0 0.0
2016-Jul-12 21:33N 53°35' E 006°20'0 0.0
2016-Jul-12 20:27N 53°35' E 006°19'0 0.0
2016-Jul-12 19:33N 53°35' E 006°19'0 0.0
2016-Jul-12 18:33N 53°35' E 006°19'0 0.0
2016-Jul-12 17:33N 53°35' E 006°20'0 0.1
2016-Jul-12 16:30N 53°35' E 006°20'0 0.0
2016-Jul-12 15:30N 53°35' E 006°20'0 0.0
2016-Jul-12 14:33N 53°35' E 006°20'0 0.0
2016-Jul-12 13:26N 53°35' E 006°20'0 0.0
2016-Jul-12 12:32N 53°35' E 006°20'0 0.0
2016-Jul-12 11:32N 53°35' E 006°20'0 0.0
2016-Jul-12 10:29N 53°35' E 006°20'0 0.0
2016-Jul-12 09:30N 53°35' E 006°20'0 0.0
2016-Jul-12 08:33N 53°35' E 006°20'0 0.0
2016-Jul-12 07:32N 53°35' E 006°20'0 0.0
2016-Jul-12 06:32N 53°35' E 006°20'0 0.0
2016-Jul-12 05:33N 53°35' E 006°20'0 0.0
2016-Jul-12 04:33N 53°35' E 006°20'0 0.1
2016-Jul-12 03:33N 53°35' E 006°20'0 0.0
2016-Jul-12 02:29N 53°35' E 006°20'0 0.0
2016-Jul-12 01:30N 53°35' E 006°20'0 0.0
2016-Jul-12 00:33N 53°35' E 006°20'0 0.0
2016-Jul-11 23:32N 53°35' E 006°20'0 0.0
2016-Jul-11 22:32N 53°35' E 006°20'0 0.0
2016-Jul-11 21:32N 53°35' E 006°20'0 0.0
2016-Jul-11 20:33N 53°35' E 006°20'0 0.0
2016-Jul-11 19:33N 53°35' E 006°20'0 0.0
2016-Jul-11 18:32N 53°35' E 006°20'0 0.0
2016-Jul-11 17:29N 53°35' E 006°20'0 0.1
2016-Jul-11 16:33N 53°35' E 006°20'0 0.0
2016-Jul-11 15:30N 53°35' E 006°20'0 0.1
2016-Jul-11 14:33N 53°35' E 006°20'0 0.0
2016-Jul-11 13:32N 53°35' E 006°20'0 0.0
2016-Jul-11 12:32N 53°35' E 006°20'0 0.0
2016-Jul-11 11:32N 53°35' E 006°20'0 0.0
2016-Jul-11 10:33N 53°35' E 006°20'0 0.0
2016-Jul-11 09:33N 53°35' E 006°20'0 0.0
2016-Jul-11 08:33N 53°35' E 006°20'0 0.0
2016-Jul-11 07:30N 53°35' E 006°20'0 0.0
2016-Jul-11 06:32N 53°35' E 006°20'0 0.0
2016-Jul-11 04:33N 53°35' E 006°20'0 0.0
2016-Jul-11 03:32N 53°35' E 006°20'0 0.0
2016-Jul-11 02:32N 53°35' E 006°20'0 0.0
2016-Jul-11 01:33N 53°35' E 006°20'0 0.0
2016-Jul-11 00:33N 53°35' E 006°20'0 0.0
2016-Jul-10 23:29N 53°35' E 006°20'0 0.0
2016-Jul-10 22:30N 53°35' E 006°20'0 0.0
2016-Jul-10 21:29N 53°35' E 006°20'0 0.0
2016-Jul-10 20:33N 53°35' E 006°20'0 0.1
2016-Jul-10 19:33N 53°35' E 006°20'0 0.0
2016-Jul-10 18:33N 53°35' E 006°20'0 0.0
2016-Jul-10 17:29N 53°35' E 006°19'0 0.0
2016-Jul-10 16:32N 53°35' E 006°20'0 0.0
2016-Jul-10 15:32N 53°35' E 006°20'0 0.0
2016-Jul-10 14:33N 53°35' E 006°20'0 0.0
2016-Jul-10 13:33N 53°35' E 006°20'0 0.0
2016-Jul-10 12:33N 53°35' E 006°20'0 0.0
2016-Jul-10 11:33N 53°35' E 006°20'0 0.0
2016-Jul-10 10:33N 53°35' E 006°20'0 0.0
2016-Jul-10 09:29N 53°35' E 006°20'0 0.0
2016-Jul-10 08:33N 53°35' E 006°20'0 0.0
2016-Jul-10 07:33N 53°35' E 006°20'0 0.0
2016-Jul-10 06:32N 53°35' E 006°20'0 0.0
2016-Jul-10 05:33N 53°35' E 006°20'0 0.0
2016-Jul-10 04:33N 53°35' E 006°20'0 0.0
2016-Jul-10 03:33N 53°35' E 006°20'0 0.0
2016-Jul-10 02:33N 53°35' E 006°20'0 0.0
2016-Jul-10 01:33N 53°35' E 006°20'0 0.0
2016-Jul-10 00:33N 53°35' E 006°20'0 0.0
2016-Jul-09 23:33N 53°35' E 006°20'0 0.0
2016-Jul-09 22:33N 53°35' E 006°20'0 0.0
2016-Jul-09 21:33N 53°35' E 006°20'0 0.0
2016-Jul-09 20:33N 53°35' E 006°20'0 0.0
2016-Jul-09 19:32N 53°35' E 006°20'0 0.0
2016-Jul-09 18:32N 53°35' E 006°20'0 0.1
2016-Jul-09 17:32N 53°35' E 006°19'0 0.0
2016-Jul-09 16:30N 53°35' E 006°19'9 9.2
2016-Jul-09 15:34N 53°37' E 006°34'1716.7
2016-Jul-09 14:33N 53°26' E 006°55'10 9.7
2016-Jul-09 13:33N 53°20' E 007°09'1 0.9
2016-Jul-09 12:29N 53°20' E 007°10'0 0.0
2016-Jul-09 11:32N 53°20' E 007°10'0 0.0
2016-Jul-09 10:29N 53°20' E 007°10'0 0.0
2016-Jul-09 09:32N 53°20' E 007°10'0 0.0
2016-Jul-09 08:32N 53°20' E 007°10'0 0.0
2016-Jul-09 07:32N 53°20' E 007°10'0 0.0
2016-Jul-09 06:32N 53°20' E 007°10'0 0.0
2016-Jul-09 04:32N 53°20' E 007°10'0 0.0
2016-Jul-09 03:32N 53°20' E 007°10'0 0.0
2016-Jul-09 02:32N 53°20' E 007°10'0 0.0
2016-Jul-09 01:33N 53°20' E 007°10'6 6.2
2016-Jul-09 00:33N 53°20' E 006°60'1514.9
2016-Jul-08 23:33N 53°32' E 006°44'1515.4
2016-Jul-08 22:34N 53°37' E 006°21'2 2.2
2016-Jul-08 21:32N 53°36' E 006°18'0 0.0
2016-Jul-08 20:32N 53°36' E 006°18'0 0.0
2016-Jul-08 19:29N 53°36' E 006°18'0 0.0
2016-Jul-08 18:32N 53°36' E 006°18'0 0.0
2016-Jul-08 17:32N 53°36' E 006°18'0 0.0
2016-Jul-08 16:32N 53°36' E 006°18'  

Dump ship's entire track history